Time;durP1;ratioP1;P1;durP2;ratioP2;P2;SDS_P1;SDS_P2;PMS_P1;PMS_P2;Temp;Humidity;BMP_temperature;BMP_pressure;BME280_temperature;BME280_humidity;BME280_pressure;Samples;Min_cycle;Max_cycle;Signal;HPM_P1;HPM_P2
2023/12/02 00:01:38;;;;;;;1999.90;999.90;;;-1.00;99.90;;;;;;5036118;28;20374;-80
2023/12/02 00:04:04;;;;;;;1999.90;999.90;;;-0.90;99.90;;;;;;5034323;28;20120;-80
2023/12/02 00:06:29;;;;;;;1999.90;999.90;;;-0.90;99.90;;;;;;5046977;28;20132;-80
2023/12/02 00:08:55;;;;;;;1999.90;999.90;;;-0.90;99.90;;;;;;5032538;28;20044;-80
2023/12/02 00:11:21;;;;;;;1999.90;999.90;;;-0.90;99.90;;;;;;5031467;28;20102;-80
2023/12/02 00:13:47;;;;;;;1999.90;999.90;;;-0.90;99.90;;;;;;5038215;28;20093;-80
2023/12/02 00:16:13;;;;;;;1999.90;999.90;;;-0.90;99.90;;;;;;5037121;28;20084;-80
2023/12/02 00:18:39;;;;;;;1999.90;999.90;;;-0.90;99.90;;;;;;5038514;28;20056;-80
2023/12/02 00:21:05;;;;;;;1999.90;999.90;;;-0.90;99.90;;;;;;5020897;28;20056;-80
2023/12/02 00:23:31;;;;;;;1999.90;999.90;;;-0.90;99.90;;;;;;5031424;28;20461;-80
2023/12/02 00:25:58;;;;;;;1999.90;999.90;;;-0.90;99.90;;;;;;5016594;28;20560;-80
2023/12/02 00:28:24;;;;;;;1999.90;999.90;;;-0.90;99.90;;;;;;5035506;28;20041;-80
2023/12/02 00:30:49;;;;;;;1999.90;999.90;;;-0.80;99.90;;;;;;5032627;28;20083;-80
2023/12/02 00:33:15;;;;;;;1999.90;999.90;;;-0.80;99.90;;;;;;5036633;28;20111;-80
2023/12/02 00:35:41;;;;;;;1999.90;999.90;;;-0.80;99.90;;;;;;5029766;28;20510;-80
2023/12/02 00:38:06;;;;;;;1999.90;999.90;;;-0.80;99.90;;;;;;5032505;28;20068;-80
2023/12/02 00:40:32;;;;;;;1999.90;999.90;;;-0.80;99.90;;;;;;5021952;28;20478;-80
2023/12/02 00:42:57;;;;;;;1999.90;999.90;;;-0.80;99.90;;;;;;5035322;28;20517;-80
2023/12/02 00:45:23;;;;;;;1999.90;999.90;;;-0.80;99.90;;;;;;5037201;28;20053;-80
2023/12/02 00:47:48;;;;;;;1999.90;999.90;;;-0.80;99.90;;;;;;5032904;28;20041;-80
2023/12/02 00:50:14;;;;;;;1999.90;999.90;;;-0.80;99.90;;;;;;5041812;28;20049;-80
2023/12/02 00:52:40;;;;;;;1999.90;999.90;;;-0.80;99.90;;;;;;5011072;28;20036;-80
2023/12/02 00:55:06;;;;;;;1999.90;999.90;;;-0.80;99.90;;;;;;5018923;28;20083;-80
2023/12/02 00:57:32;;;;;;;1999.90;999.90;;;-0.80;99.90;;;;;;5030573;28;20034;-80
2023/12/02 00:59:57;;;;;;;1999.90;999.90;;;-0.70;99.90;;;;;;5029052;28;20099;-80
2023/12/02 01:02:23;;;;;;;1999.90;999.90;;;-0.70;99.90;;;;;;5030900;28;20033;-80
2023/12/02 01:04:48;;;;;;;1999.90;999.90;;;-0.80;99.90;;;;;;5013458;28;20033;-80
2023/12/02 01:07:14;;;;;;;1999.90;999.90;;;-0.80;99.90;;;;;;5008515;28;20042;-80
2023/12/02 01:09:40;;;;;;;1999.90;999.90;;;-0.80;99.90;;;;;;5029180;28;20072;-80
2023/12/02 01:12:06;;;;;;;1999.90;999.90;;;-0.80;99.90;;;;;;5030718;28;20063;-80
2023/12/02 01:14:31;;;;;;;1999.90;999.90;;;-0.80;99.90;;;;;;5025775;28;20487;-79
2023/12/02 01:16:57;;;;;;;1999.90;999.90;;;-0.80;99.90;;;;;;5032677;28;20401;-80
2023/12/02 01:19:22;;;;;;;1999.90;999.90;;;-0.90;99.90;;;;;;5016826;28;20041;-80
2023/12/02 01:21:48;;;;;;;1999.90;999.90;;;-0.80;99.90;;;;;;5015021;28;20067;-80
2023/12/02 01:24:15;;;;;;;1999.90;999.90;;;-0.80;99.90;;;;;;5023816;28;20094;-80
2023/12/02 01:26:40;;;;;;;1999.90;999.90;;;-0.80;99.90;;;;;;5031452;28;20049;-80
2023/12/02 01:29:06;;;;;;;1999.90;999.90;;;-0.90;99.90;;;;;;5027909;28;20037;-80
2023/12/02 01:31:31;;;;;;;1999.90;999.90;;;-0.90;99.90;;;;;;5029563;28;20034;-80
2023/12/02 01:33:57;;;;;;;1999.90;999.90;;;-0.80;99.90;;;;;;5027079;28;20052;-80
2023/12/02 01:36:23;;;;;;;1999.90;999.90;;;-0.90;99.90;;;;;;5037415;28;20060;-80
2023/12/02 01:38:48;;;;;;;1999.90;999.90;;;-0.90;99.90;;;;;;5012216;28;21013;-80
2023/12/02 01:41:14;;;;;;;1999.90;999.90;;;-0.80;99.90;;;;;;5006998;28;20065;-80
2023/12/02 01:43:40;;;;;;;1999.90;999.90;;;-0.80;99.90;;;;;;5007448;28;20544;-80
2023/12/02 01:46:06;;;;;;;1999.90;999.90;;;-0.80;99.90;;;;;;5025104;28;20401;-80
2023/12/02 01:48:34;;;;;;;1999.90;999.90;;;-0.80;99.90;;;;;;5013372;28;20153;-79
2023/12/02 01:51:00;;;;;;;1999.90;999.90;;;-0.80;99.90;;;;;;5026790;28;20041;-80
2023/12/02 01:53:26;;;;;;;1999.90;999.90;;;-0.80;99.90;;;;;;5031668;28;20049;-80
2023/12/02 01:55:52;;;;;;;1999.90;999.90;;;-0.80;99.90;;;;;;5017933;28;20048;-80
2023/12/02 01:58:19;;;;;;;1999.90;999.90;;;-0.80;99.90;;;;;;5017276;28;20413;-80
2023/12/02 02:00:45;;;;;;;1999.90;999.90;;;-0.80;99.90;;;;;;5031668;28;20115;-80
2023/12/02 02:03:11;;;;;;;1999.90;999.90;;;-0.80;99.90;;;;;;5030255;28;20050;-80
2023/12/02 02:05:36;;;;;;;1999.90;999.90;;;-0.90;99.90;;;;;;5031454;28;20539;-79
2023/12/02 02:08:02;;;;;;;1999.90;999.90;;;-0.90;99.90;;;;;;5036009;28;20410;-80
2023/12/02 02:10:28;;;;;;;1999.90;999.90;;;-0.90;99.90;;;;;;5032269;28;20033;-79
2023/12/02 02:12:54;;;;;;;1999.90;999.90;;;-0.90;99.90;;;;;;5035658;28;20044;-79
2023/12/02 02:15:20;;;;;;;1999.90;999.90;;;-1.00;99.90;;;;;;5025271;28;20443;-79
2023/12/02 02:17:45;;;;;;;1999.90;999.90;;;-1.00;99.90;;;;;;5009017;28;20052;-80
2023/12/02 02:20:11;;;;;;;1999.90;999.90;;;-1.00;99.90;;;;;;5037744;28;20140;-79
2023/12/02 02:22:37;;;;;;;1999.90;999.90;;;-1.00;99.90;;;;;;5056360;28;20045;-79
2023/12/02 02:25:02;;;;;;;1999.90;999.90;;;-1.00;99.90;;;;;;5029604;28;20060;-80
2023/12/02 02:27:28;;;;;;;1999.90;999.90;;;-1.00;99.90;;;;;;5029614;28;20033;-80
2023/12/02 02:29:54;;;;;;;1999.90;999.90;;;-1.00;99.90;;;;;;5013038;28;20497;-79
2023/12/02 02:32:19;;;;;;;1999.90;999.90;;;-1.10;99.90;;;;;;5012132;28;20041;-80
2023/12/02 02:34:46;;;;;;;1999.90;999.90;;;-1.10;99.90;;;;;;5029751;28;20125;-80
2023/12/02 02:37:11;;;;;;;1999.90;999.90;;;-1.10;99.90;;;;;;5035614;28;20111;-80
2023/12/02 02:39:37;;;;;;;1999.90;999.90;;;-1.10;99.90;;;;;;5026315;28;20081;-80
2023/12/02 02:42:06;;;;;;;1999.90;999.90;;;-1.20;99.90;;;;;;5013739;28;20133;-79
2023/12/02 02:44:36;;;;;;;1999.90;999.90;;;-1.20;99.90;;;;;;5012673;28;20041;-79
2023/12/02 02:47:01;;;;;;;1999.90;999.90;;;-1.20;99.90;;;;;;5015582;28;20055;-79
2023/12/02 02:49:27;;;;;;;1999.90;999.90;;;-1.20;99.90;;;;;;5031858;28;20038;-79
2023/12/02 02:51:53;;;;;;;1999.90;999.90;;;-1.30;99.90;;;;;;5031294;28;20045;-79
2023/12/02 02:54:19;;;;;;;1999.90;999.90;;;-1.20;99.90;;;;;;5013615;28;20091;-79
2023/12/02 02:56:44;;;;;;;1999.90;999.90;;;-1.30;99.90;;;;;;5018113;28;20084;-80
2023/12/02 02:59:10;;;;;;;1999.90;999.90;;;-1.30;99.90;;;;;;5038463;28;20048;-80
2023/12/02 03:01:38;;;;;;;1999.90;999.90;;;-1.30;99.90;;;;;;5029003;28;20056;-80
2023/12/02 03:04:04;;;;;;;1999.90;999.90;;;-1.30;99.90;;;;;;5038938;28;20041;-80
2023/12/02 03:06:29;;;;;;;1999.90;999.90;;;-1.30;99.90;;;;;;5040779;28;20056;-80
2023/12/02 03:08:55;;;;;;;1999.90;999.90;;;-1.30;99.90;;;;;;5027458;28;20134;-79
2023/12/02 03:11:21;;;;;;;1999.90;999.90;;;-1.30;99.90;;;;;;5018193;28;20037;-79
2023/12/02 03:13:47;;;;;;;1999.90;999.90;;;-1.30;99.90;;;;;;5031712;28;20282;-79
2023/12/02 03:16:13;;;;;;;1999.90;999.90;;;-1.30;99.90;;;;;;5035438;28;20045;-79
2023/12/02 03:18:38;;;;;;;1999.90;999.90;;;-1.30;99.90;;;;;;5021275;28;20513;-80
2023/12/02 03:21:07;;;;;;;1999.90;999.90;;;-1.30;99.90;;;;;;5046823;28;20400;-79
2023/12/02 03:23:33;;;;;;;1999.90;999.90;;;-1.30;99.90;;;;;;5032161;28;20033;-79
2023/12/02 03:25:58;;;;;;;1999.90;999.90;;;-1.40;99.90;;;;;;5014382;28;20045;-79
2023/12/02 03:28:24;;;;;;;1999.90;999.90;;;-1.30;99.90;;;;;;5031212;28;20034;-79
2023/12/02 03:30:50;;;;;;;1999.90;999.90;;;-1.40;99.90;;;;;;5028664;28;20041;-79
2023/12/02 03:33:16;;;;;;;1999.90;999.90;;;-1.30;99.90;;;;;;5014393;28;20055;-80
2023/12/02 03:35:41;;;;;;;1999.90;999.90;;;-1.30;99.90;;;;;;5013907;28;20037;-80
2023/12/02 03:38:07;;;;;;;1999.90;999.90;;;-1.30;99.90;;;;;;5037471;28;20045;-79
2023/12/02 03:40:33;;;;;;;1999.90;999.90;;;-1.40;99.90;;;;;;5018049;28;20140;-79
2023/12/02 03:42:58;;;;;;;1999.90;999.90;;;-1.30;99.90;;;;;;5039098;28;20452;-79
2023/12/02 03:45:25;;;;;;;1999.90;999.90;;;-1.30;99.90;;;;;;5017083;28;20041;-79
2023/12/02 03:47:50;;;;;;;1999.90;999.90;;;-1.40;99.90;;;;;;5013351;28;20048;-79
2023/12/02 03:50:18;;;;;;;1999.90;999.90;;;-1.40;99.90;;;;;;5037232;28;20037;-79
2023/12/02 03:52:44;;;;;;;1999.90;999.90;;;-1.30;99.90;;;;;;5032888;28;20044;-79
2023/12/02 03:55:10;;;;;;;1999.90;999.90;;;-1.30;99.90;;;;;;5023072;28;20045;-80
2023/12/02 03:57:35;;;;;;;1999.90;999.90;;;-1.40;99.90;;;;;;5033697;28;20045;-79
2023/12/02 04:00:10;;;;;;;1999.90;999.90;;;-1.40;99.90;;;;;;5037170;28;20394;-79
2023/12/02 04:02:39;;;;;;;1999.90;999.90;;;-1.40;99.90;;;;;;5020768;28;20041;-79
2023/12/02 04:05:09;;;;;;;1999.90;999.90;;;-1.40;99.90;;;;;;5028495;28;20406;-79
2023/12/02 04:07:36;;;;;;;1999.90;999.90;;;-1.40;99.90;;;;;;5010669;28;20034;-79
2023/12/02 04:10:03;;;;;;;1999.90;999.90;;;-1.40;99.90;;;;;;5035574;28;20045;-79
2023/12/02 04:12:29;;;;;;;1999.90;999.90;;;-1.40;99.90;;;;;;5033086;28;20041;-79
2023/12/02 04:14:55;;;;;;;1999.90;999.90;;;-1.30;99.90;;;;;;5034009;28;20049;-79
2023/12/02 04:17:21;;;;;;;1999.90;999.90;;;-1.30;99.90;;;;;;5021843;28;20045;-79
2023/12/02 04:19:47;;;;;;;1999.90;999.90;;;-1.30;99.90;;;;;;5040791;28;20052;-79
2023/12/02 04:22:13;;;;;;;1999.90;999.90;;;-1.30;99.90;;;;;;5030036;28;20049;-79
2023/12/02 04:24:39;;;;;;;1999.90;999.90;;;-1.30;99.90;;;;;;5032459;28;20047;-79
2023/12/02 04:27:05;;;;;;;1999.90;999.90;;;-1.40;99.90;;;;;;5026746;28;20041;-79
2023/12/02 04:29:31;;;;;;;1999.90;999.90;;;-1.40;99.90;;;;;;5026208;28;20045;-79
2023/12/02 04:31:57;;;;;;;1999.90;999.90;;;-1.40;99.90;;;;;;5030114;28;20057;-79
2023/12/02 04:34:23;;;;;;;1999.90;999.90;;;-1.40;99.90;;;;;;5029048;28;20482;-80
2023/12/02 04:36:48;;;;;;;1999.90;999.90;;;-1.40;99.90;;;;;;5026998;28;20060;-80
2023/12/02 04:39:14;;;;;;;1999.90;999.90;;;-1.40;99.90;;;;;;5015199;28;20098;-80
2023/12/02 04:41:40;;;;;;;1999.90;999.90;;;-1.40;99.90;;;;;;5029172;28;20062;-80
2023/12/02 04:44:06;;;;;;;1999.90;999.90;;;-1.40;99.90;;;;;;5049005;28;20048;-80
2023/12/02 04:46:32;;;;;;;1999.90;999.90;;;-1.40;99.90;;;;;;5012438;28;20049;-79
2023/12/02 04:48:57;;;;;;;1999.90;999.90;;;-1.40;99.90;;;;;;5027404;28;20470;-79
2023/12/02 04:51:23;;;;;;;1999.90;999.90;;;-1.40;99.90;;;;;;5029444;28;20506;-80
2023/12/02 04:53:48;;;;;;;1999.90;999.90;;;-1.40;99.90;;;;;;5010541;28;20041;-79
2023/12/02 04:56:14;;;;;;;1999.90;999.90;;;-1.40;99.90;;;;;;5030083;28;20045;-79
2023/12/02 04:58:40;;;;;;;1999.90;999.90;;;-1.40;99.90;;;;;;5015049;28;20064;-79
2023/12/02 05:01:06;;;;;;;1999.90;999.90;;;-1.40;99.90;;;;;;5011083;28;20033;-79
2023/12/02 05:03:31;;;;;;;1999.90;999.90;;;-1.40;99.90;;;;;;5011129;28;20119;-79
2023/12/02 05:05:57;;;;;;;1999.90;999.90;;;-1.40;99.90;;;;;;5029616;28;20380;-79
2023/12/02 05:08:22;;;;;;;1999.90;999.90;;;-1.40;99.90;;;;;;5012651;28;20557;-79
2023/12/02 05:10:48;;;;;;;1999.90;999.90;;;-1.40;99.90;;;;;;5032884;28;20177;-79
2023/12/02 05:13:14;;;;;;;1999.90;999.90;;;-1.40;99.90;;;;;;5015665;28;20382;-79
2023/12/02 05:15:40;;;;;;;1999.90;999.90;;;-1.40;99.90;;;;;;5030639;28;20045;-79
2023/12/02 05:18:05;;;;;;;1999.90;999.90;;;-1.40;99.90;;;;;;5026398;28;20048;-79
2023/12/02 05:20:31;;;;;;;1999.90;999.90;;;-1.40;99.90;;;;;;5033359;28;20416;-79
2023/12/02 05:22:56;;;;;;;1999.90;999.90;;;-1.40;99.90;;;;;;5027257;28;20041;-79
2023/12/02 05:25:22;;;;;;;1999.90;999.90;;;-1.40;99.90;;;;;;5033587;28;20042;-79
2023/12/02 05:27:48;;;;;;;1999.90;999.90;;;-1.40;99.90;;;;;;5032816;28;20069;-79
2023/12/02 05:30:14;;;;;;;1999.90;999.90;;;-1.40;99.90;;;;;;5030607;28;20037;-79
2023/12/02 05:32:40;;;;;;;1999.90;999.90;;;-1.40;99.90;;;;;;5012660;28;20045;-79
2023/12/02 05:35:10;;;;;;;1999.90;999.90;;;-1.40;99.90;;;;;;5009523;28;20041;-79
2023/12/02 05:37:36;;;;;;;1999.90;999.90;;;-1.50;99.90;;;;;;5029211;28;20401;-79
2023/12/02 05:40:03;;;;;;;1999.90;999.90;;;-1.50;99.90;;;;;;5033211;28;20112;-79
2023/12/02 05:42:28;;;;;;;1999.90;999.90;;;-1.40;99.90;;;;;;5037632;28;20143;-79
2023/12/02 05:44:54;;;;;;;1999.90;999.90;;;-1.50;99.90;;;;;;5042556;28;20080;-79
2023/12/02 05:47:20;;;;;;;1999.90;999.90;;;-1.40;99.90;;;;;;5034782;28;20041;-79
2023/12/02 05:49:45;;;;;;;1999.90;999.90;;;-1.40;99.90;;;;;;5036482;28;20055;-79
2023/12/02 05:52:11;;;;;;;1999.90;999.90;;;-1.40;99.90;;;;;;5034870;28;20057;-79
2023/12/02 05:54:36;;;;;;;1999.90;999.90;;;-1.40;99.90;;;;;;5011374;28;20056;-79
2023/12/02 05:57:02;;;;;;;1999.90;999.90;;;-1.40;99.90;;;;;;5012058;28;20052;-79
2023/12/02 05:59:28;;;;;;;1999.90;999.90;;;-1.50;99.90;;;;;;5022827;28;20103;-79
2023/12/02 06:01:53;;;;;;;1999.90;999.90;;;-1.50;99.90;;;;;;5027239;28;20517;-79
2023/12/02 06:04:19;;;;;;;1999.90;999.90;;;-1.50;99.90;;;;;;5018296;28;20034;-79
2023/12/02 06:06:46;;;;;;;1999.90;999.90;;;-1.50;99.90;;;;;;5040063;28;20077;-79
2023/12/02 06:09:12;;;;;;;1999.90;999.90;;;-1.50;99.90;;;;;;5037123;28;20537;-79
2023/12/02 06:11:37;;;;;;;1999.90;999.90;;;-1.50;99.90;;;;;;5026430;28;20183;-79
2023/12/02 06:14:03;;;;;;;1999.90;999.90;;;-1.50;99.90;;;;;;5021001;28;20072;-79
2023/12/02 06:16:28;;;;;;;1999.90;999.90;;;-1.50;99.90;;;;;;5038880;28;20044;-79
2023/12/02 06:18:54;;;;;;;1999.90;999.90;;;-1.50;99.90;;;;;;5022573;28;20098;-79
2023/12/02 06:21:20;;;;;;;1999.90;999.90;;;-1.50;99.90;;;;;;5034246;28;20029;-79
2023/12/02 06:23:45;;;;;;;1999.90;999.90;;;-1.50;99.90;;;;;;5029280;28;20073;-79
2023/12/02 06:26:11;;;;;;;1999.90;999.90;;;-1.50;99.90;;;;;;5007692;28;20387;-79
2023/12/02 06:28:36;;;;;;;1999.90;999.90;;;-1.50;99.90;;;;;;5027660;28;20183;-79
2023/12/02 06:31:02;;;;;;;1999.90;999.90;;;-1.50;99.90;;;;;;5015369;28;20045;-79
2023/12/02 06:33:28;;;;;;;1999.90;999.90;;;-1.50;99.90;;;;;;5039554;28;20029;-79
2023/12/02 06:35:53;;;;;;;1999.90;999.90;;;-1.50;99.90;;;;;;5015869;28;20558;-79
2023/12/02 06:38:19;;;;;;;1999.90;999.90;;;-1.50;99.90;;;;;;5014913;28;20046;-79
2023/12/02 06:40:44;;;;;;;1999.90;999.90;;;-1.50;99.90;;;;;;5017167;28;20506;-79
2023/12/02 06:43:13;;;;;;;1999.90;999.90;;;-1.50;99.90;;;;;;5019875;28;20447;-79
2023/12/02 06:45:40;;;;;;;1999.90;999.90;;;-1.50;99.90;;;;;;5019783;28;20114;-79
2023/12/02 06:48:05;;;;;;;1999.90;999.90;;;-1.50;99.90;;;;;;5036061;28;20037;-79
2023/12/02 06:50:31;;;;;;;1999.90;999.90;;;-1.50;99.90;;;;;;5042535;28;20556;-79
2023/12/02 06:52:56;;;;;;;1999.90;999.90;;;-1.50;99.90;;;;;;5040951;28;20094;-79
2023/12/02 06:55:22;;;;;;;1999.90;999.90;;;-1.50;99.90;;;;;;5019715;28;20041;-79
2023/12/02 06:57:48;;;;;;;1999.90;999.90;;;-1.50;99.90;;;;;;5038273;28;20036;-79
2023/12/02 07:00:14;;;;;;;1999.90;999.90;;;-1.50;99.90;;;;;;5034125;28;20040;-79
2023/12/02 07:02:41;;;;;;;1999.90;999.90;;;-1.50;99.90;;;;;;5043892;28;20132;-79
2023/12/02 07:05:08;;;;;;;1999.90;999.90;;;-1.50;99.90;;;;;;5040026;28;20052;-79
2023/12/02 07:07:33;;;;;;;1999.90;999.90;;;-1.50;99.90;;;;;;5024731;28;20052;-79
2023/12/02 07:09:59;;;;;;;1999.90;999.90;;;-1.50;99.90;;;;;;5036380;28;20396;-79
2023/12/02 07:12:25;;;;;;;1999.90;999.90;;;-1.50;99.90;;;;;;5032429;28;20124;-79
2023/12/02 07:14:50;;;;;;;1999.90;999.90;;;-1.50;99.90;;;;;;5022409;28;20400;-79
2023/12/02 07:17:16;;;;;;;1999.90;999.90;;;-1.50;99.90;;;;;;5035235;28;20500;-79
2023/12/02 07:19:41;;;;;;;1999.90;999.90;;;-1.50;99.90;;;;;;5046619;28;20044;-79
2023/12/02 07:22:07;;;;;;;1999.90;999.90;;;-1.50;99.90;;;;;;5015672;28;20128;-79
2023/12/02 07:24:32;;;;;;;1999.90;999.90;;;-1.40;99.90;;;;;;5015583;28;20049;-79
2023/12/02 07:26:58;;;;;;;1999.90;999.90;;;-1.40;99.90;;;;;;5029580;28;20363;-79
2023/12/02 07:29:23;;;;;;;1999.90;999.90;;;-1.40;99.90;;;;;;5035243;28;20485;-79
2023/12/02 07:31:49;;;;;;;1999.90;999.90;;;-1.50;99.90;;;;;;5011596;28;20337;-79
2023/12/02 07:34:15;;;;;;;1999.90;999.90;;;-1.50;99.90;;;;;;5015301;28;20510;-79
2023/12/02 07:36:40;;;;;;;1999.90;999.90;;;-1.50;99.90;;;;;;5029318;28;20048;-79
2023/12/02 07:39:06;;;;;;;1999.90;999.90;;;-1.40;99.90;;;;;;5013097;28;20048;-79
2023/12/02 07:41:32;;;;;;;1999.90;999.90;;;-1.40;99.90;;;;;;5025153;28;20141;-79
2023/12/02 07:43:57;;;;;;;1999.90;999.90;;;-1.40;99.90;;;;;;5030119;28;20556;-79
2023/12/02 07:46:23;;;;;;;1999.90;999.90;;;-1.40;99.90;;;;;;5013280;28;20045;-79
2023/12/02 07:48:49;;;;;;;1999.90;999.90;;;-1.40;99.90;;;;;;5030393;28;20550;-79
2023/12/02 07:51:14;;;;;;;1999.90;999.90;;;-1.40;99.90;;;;;;5045509;28;20045;-78
2023/12/02 07:53:40;;;;;;;1999.90;999.90;;;-1.30;99.90;;;;;;5034136;28;20042;-78
2023/12/02 07:56:06;;;;;;;1999.90;999.90;;;-1.30;99.90;;;;;;5032323;28;20049;-79
2023/12/02 07:58:32;;;;;;;1999.90;999.90;;;-1.30;99.90;;;;;;5015223;28;20083;-79
2023/12/02 08:00:57;;;;;;;1999.90;999.90;;;-1.30;99.90;;;;;;5030146;28;20049;-78
2023/12/02 08:03:23;;;;;;;1999.90;999.90;;;-1.30;99.90;;;;;;5011114;28;20041;-79
2023/12/02 08:05:48;;;;;;;1999.90;999.90;;;-1.20;99.90;;;;;;5008771;28;20839;-78
2023/12/02 08:08:14;;;;;;;1999.90;999.90;;;-1.20;99.90;;;;;;5031295;28;20048;-78
2023/12/02 08:10:40;;;;;;;1999.90;999.90;;;-1.10;99.90;;;;;;5009333;28;20112;-78
2023/12/02 08:13:05;;;;;;;1999.90;999.90;;;-1.10;99.90;;;;;;5009603;28;20045;-78
2023/12/02 08:15:31;;;;;;;1999.90;999.90;;;-1.00;99.90;;;;;;5031266;28;20061;-79
2023/12/02 08:17:56;;;;;;;1999.90;999.90;;;-1.00;99.90;;;;;;5029003;28;20037;-79
2023/12/02 08:20:22;;;;;;;1999.90;999.90;;;-1.00;99.90;;;;;;5022790;28;20045;-79
2023/12/02 08:22:47;;;;;;;1999.90;999.90;;;-0.90;99.90;;;;;;5033714;28;20120;-78
2023/12/02 08:25:13;;;;;;;1999.90;999.90;;;-0.90;99.90;;;;;;5031109;28;20479;-78
2023/12/02 08:27:39;;;;;;;1999.90;999.90;;;-0.90;99.90;;;;;;5017641;28;20076;-78
2023/12/02 08:30:07;;;;;;;1999.90;999.90;;;-0.80;99.90;;;;;;5029317;28;20099;-78
2023/12/02 08:32:32;;;;;;;1999.90;999.90;;;-0.80;99.90;;;;;;5019593;28;20046;-79
2023/12/02 08:34:58;;;;;;;1999.90;999.90;;;-0.70;99.90;;;;;;5018552;28;20501;-79
2023/12/02 08:37:24;;;;;;;1999.90;999.90;;;-0.70;99.90;;;;;;5026752;28;20037;-79
2023/12/02 08:39:49;;;;;;;1999.90;999.90;;;-0.60;99.90;;;;;;5010199;28;20034;-79
2023/12/02 08:42:15;;;;;;;1999.90;999.90;;;-0.60;99.90;;;;;;5013733;28;20564;-78
2023/12/02 08:44:41;;;;;;;1999.90;999.90;;;-0.50;99.90;;;;;;5029661;28;20045;-78
2023/12/02 08:47:07;;;;;;;1999.90;999.90;;;-0.50;99.90;;;;;;5015739;28;20049;-78
2023/12/02 08:49:33;;;;;;;1999.90;999.90;;;-0.40;99.90;;;;;;5012010;28;20120;-78
2023/12/02 08:51:58;;;;;;;1999.90;999.90;;;-0.40;99.90;;;;;;5035456;28;20045;-78
2023/12/02 08:54:24;;;;;;;1999.90;999.90;;;-0.40;99.90;;;;;;5029314;28;20426;-78
2023/12/02 08:56:49;;;;;;;1999.90;999.90;;;-0.30;99.90;;;;;;5029792;28;20045;-78
2023/12/02 08:59:16;;;;;;;1999.90;999.90;;;-0.30;99.90;;;;;;5014240;28;20478;-79
2023/12/02 09:01:42;;;;;;;1999.90;999.90;;;-0.20;99.90;;;;;;5046220;28;20044;-79
2023/12/02 09:04:07;;;;;;;1999.90;999.90;;;-0.20;99.90;;;;;;5039480;28;20393;-79
2023/12/02 09:06:33;;;;;;;1999.90;999.90;;;-0.10;99.90;;;;;;5025039;28;20048;-79
2023/12/02 09:08:59;;;;;;;1999.90;999.90;;;-0.10;99.90;;;;;;5029064;28;20041;-79
2023/12/02 09:11:25;;;;;;;1999.90;999.90;;;-0.10;99.90;;;;;;5020015;28;20405;-80
2023/12/02 09:13:50;;;;;;;1999.90;999.90;;;0.00;99.90;;;;;;5027827;28;20041;-79
2023/12/02 09:16:28;;;;;;;1999.90;999.90;;;0.00;99.90;;;;;;5019729;28;20513;-79
2023/12/02 09:18:54;;;;;;;1999.90;999.90;;;0.10;99.90;;;;;;5034682;28;20083;-79
2023/12/02 09:21:40;;;;;;;1999.90;999.90;;;0.10;99.90;;;;;;5042073;28;20076;-79
2023/12/02 09:24:29;;;;;;;1999.90;999.90;;;0.20;99.90;;;;;;5010466;28;20170;-79
2023/12/02 09:26:55;;;;;;;1999.90;999.90;;;0.20;99.90;;;;;;5016603;28;20506;-79
2023/12/02 09:29:25;;;;;;;1999.90;999.90;;;0.30;99.90;;;;;;5022491;28;20041;-79
2023/12/02 09:31:50;;;;;;;1999.90;999.90;;;0.30;99.90;;;;;;5039179;28;20493;-79
2023/12/02 09:34:41;;;;;;;1999.90;999.90;;;0.40;99.90;;;;;;5000658;28;20045;-79
2023/12/02 09:37:45;;;;;;;1999.90;999.90;;;0.40;99.90;;;;;;5032813;28;20053;-79
2023/12/02 09:40:23;;;;;;;1999.90;999.90;;;0.50;99.90;;;;;;5014226;28;20041;-79
2023/12/02 09:43:04;;;;;;;1999.90;999.90;;;0.60;99.90;;;;;;5009437;28;20401;-79
2023/12/02 09:45:37;;;;;;;1999.90;999.90;;;0.60;99.90;;;;;;5013378;28;20042;-79
2023/12/02 09:48:13;;;;;;;1999.90;999.90;;;0.70;99.90;;;;;;5032749;28;20145;-79
2023/12/02 09:50:59;;;;;;;1999.90;999.90;;;0.70;99.90;;;;;;5010294;28;20449;-79
2023/12/02 09:53:57;;;;;;;1999.90;999.90;;;0.70;99.90;;;;;;5024488;28;20051;-79
2023/12/02 09:56:34;;;;;;;1999.90;999.90;;;0.80;99.90;;;;;;5041473;28;20057;-79
2023/12/02 09:59:18;;;;;;;1999.90;999.90;;;0.90;99.90;;;;;;5033051;28;20072;-79
2023/12/02 10:02:00;;;;;;;1999.90;999.90;;;0.90;99.90;;;;;;5016407;28;20103;-79
2023/12/02 10:04:51;;;;;;;1999.90;999.90;;;0.90;99.90;;;;;;5028936;28;20045;-79
2023/12/02 10:07:48;;;;;;;1999.90;999.90;;;1.00;99.90;;;;;;5028151;28;20042;-79
2023/12/02 10:10:19;;;;;;;1999.90;999.90;;;1.10;99.90;;;;;;5016450;28;20047;-79
2023/12/02 10:13:18;;;;;;;1999.90;999.90;;;1.10;99.90;;;;;;5030059;28;20037;-79
2023/12/02 10:15:46;;;;;;;1999.90;999.90;;;1.20;99.90;;;;;;5033985;28;20380;-79
2023/12/02 10:18:14;;;;;;;1999.90;999.90;;;1.20;99.90;;;;;;5030887;28;20513;-79
2023/12/02 10:20:42;;;;;;;1999.90;999.90;;;1.40;99.90;;;;;;5012131;28;20045;-79
2023/12/02 10:23:26;;;;;;;1999.90;999.90;;;1.60;99.90;;;;;;5025153;28;20045;-79
2023/12/02 10:25:51;;;;;;;1999.90;999.90;;;1.80;99.90;;;;;;5026599;28;20551;-79
2023/12/02 10:28:25;;;;;;;1999.90;999.90;;;1.90;99.90;;;;;;5028534;28;20045;-79
2023/12/02 10:30:53;;;;;;;1999.90;999.90;;;2.00;99.90;;;;;;5013692;28;20438;-79
2023/12/02 10:33:21;;;;;;;1999.90;999.90;;;2.10;99.90;;;;;;5009769;28;20040;-79
2023/12/02 10:35:48;;;;;;;1999.90;999.90;;;2.10;99.90;;;;;;5027760;28;20048;-79
2023/12/02 10:38:40;;;;;;;1999.90;999.90;;;2.20;99.90;;;;;;5012750;28;20045;-79
2023/12/02 10:41:16;;;;;;;1999.90;999.90;;;2.20;99.90;;;;;;5023451;28;21002;-79
2023/12/02 10:43:44;;;;;;;1999.90;999.90;;;2.20;99.90;;;;;;5019768;28;20049;-79
2023/12/02 10:46:11;;;;;;;1999.90;999.90;;;2.20;99.90;;;;;;5028524;28;20041;-79
2023/12/02 10:48:38;;;;;;;1999.90;999.90;;;2.30;99.90;;;;;;5018483;28;20041;-79
2023/12/02 10:51:06;;;;;;;1999.90;999.90;;;2.30;99.90;;;;;;5043023;28;20044;-79
2023/12/02 10:53:34;;;;;;;1999.90;999.90;;;2.30;99.90;;;;;;5038634;28;20041;-79
2023/12/02 10:56:05;;;;;;;1999.90;999.90;;;2.40;99.90;;;;;;5027132;28;20041;-79
2023/12/02 10:58:32;;;;;;;1999.90;999.90;;;2.40;99.90;;;;;;5015686;28;20042;-79
2023/12/02 11:01:05;;;;;;;1999.90;999.90;;;2.40;99.90;;;;;;5028165;28;20424;-79
2023/12/02 11:03:57;;;;;;;1999.90;999.90;;;2.40;99.90;;;;;;5016935;28;20044;-79
2023/12/02 11:06:36;;;;;;;1999.90;999.90;;;2.40;99.90;;;;;;5014312;28;20518;-79
2023/12/02 11:09:23;;;;;;;1999.90;999.90;;;2.40;99.90;;;;;;5009172;28;20389;-79
2023/12/02 11:11:52;;;;;;;1999.90;999.90;;;2.40;99.90;;;;;;5029981;28;20402;-79
2023/12/02 11:14:18;;;;;;;1999.90;999.90;;;2.40;99.90;;;;;;5022623;28;20401;-79
2023/12/02 11:17:14;;;;;;;1999.90;999.90;;;2.40;99.90;;;;;;5028049;28;20045;-79
2023/12/02 11:20:12;;;;;;;1999.90;999.90;;;2.40;99.90;;;;;;5064072;28;20076;-79
2023/12/02 11:22:57;;;;;;;1999.90;999.90;;;2.40;99.90;;;;;;5031698;28;20055;-79
2023/12/02 11:25:35;;;;;;;1999.90;999.90;;;2.40;99.90;;;;;;5007441;28;20048;-79
2023/12/02 11:28:29;;;;;;;1999.90;999.90;;;2.50;99.90;;;;;;5029111;28;20087;-79
2023/12/02 11:31:06;;;;;;;1999.90;999.90;;;2.50;99.90;;;;;;5038017;28;20041;-79
2023/12/02 11:34:01;;;;;;;1999.90;999.90;;;2.50;99.90;;;;;;5052949;28;20768;-79
2023/12/02 11:36:51;;;;;;;1999.90;999.90;;;2.60;99.90;;;;;;5041508;28;20060;-79
2023/12/02 11:39:48;;;;;;;1999.90;999.90;;;2.70;99.90;;;;;;5033504;28;20480;-79
2023/12/02 11:42:18;;;;;;;1999.90;999.90;;;2.70;99.90;;;;;;5044652;28;20556;-79
2023/12/02 11:45:14;;;;;;;1999.90;999.90;;;2.60;99.90;;;;;;5031389;28;20046;-79
2023/12/02 11:48:07;;;;;;;1999.90;999.90;;;2.70;99.90;;;;;;5014173;28;20421;-79
2023/12/02 11:51:16;;;;;;;1999.90;999.90;;;2.70;99.90;;;;;;5009368;28;20376;-79
2023/12/02 11:54:00;;;;;;;1999.90;999.90;;;2.80;99.90;;;;;;5030337;28;20430;-79
2023/12/02 11:56:25;;;;;;;1999.90;999.90;;;2.80;99.90;;;;;;5030672;28;20045;-79
2023/12/02 11:58:52;;;;;;;1999.90;999.90;;;2.80;99.90;;;;;;5026539;28;20501;-80
2023/12/02 12:01:35;;;;;;;1999.90;999.90;;;2.80;99.90;;;;;;5007879;28;20499;-79
2023/12/02 12:04:35;;;;;;;1999.90;999.90;;;2.90;99.90;;;;;;5015768;28;20456;-79
2023/12/02 12:07:30;;;;;;;1999.90;999.90;;;2.90;99.90;;;;;;5039821;28;20053;-79
2023/12/02 12:10:10;;;;;;;1999.90;999.90;;;2.90;99.90;;;;;;5013050;28;20128;-79